sensor_id;sensor_type;location;lat;lon;timestamp;P1;durP1;ratioP1;P2;durP2;ratioP2
78372;SDS011;67656;52.074;4.758;2024-01-25T00:04:01;22.35;;;2.60;;
78372;SDS011;67656;52.074;4.758;2024-01-25T00:09:01;27.25;;;3.38;;
78372;SDS011;67656;52.074;4.758;2024-01-25T00:14:02;21.33;;;2.40;;
78372;SDS011;67656;52.074;4.758;2024-01-25T00:19:02;21.63;;;2.83;;
78372;SDS011;67656;52.074;4.758;2024-01-25T00:24:03;18.73;;;2.77;;
78372;SDS011;67656;52.074;4.758;2024-01-25T00:29:03;20.77;;;2.67;;
78372;SDS011;67656;52.074;4.758;2024-01-25T00:34:04;19.23;;;2.35;;
78372;SDS011;67656;52.074;4.758;2024-01-25T00:39:05;17.13;;;2.50;;
78372;SDS011;67656;52.074;4.758;2024-01-25T00:44:06;22.10;;;2.70;;
78372;SDS011;67656;52.074;4.758;2024-01-25T00:49:07;23.53;;;2.17;;
78372;SDS011;67656;52.074;4.758;2024-01-25T00:54:08;21.37;;;2.33;;
78372;SDS011;67656;52.074;4.758;2024-01-25T00:59:08;17.00;;;2.57;;
78372;SDS011;67656;52.074;4.758;2024-01-25T01:04:11;21.17;;;2.37;;
78372;SDS011;67656;52.074;4.758;2024-01-25T01:09:11;14.70;;;2.13;;
78372;SDS011;67656;52.074;4.758;2024-01-25T01:14:12;16.17;;;2.17;;
78372;SDS011;67656;52.074;4.758;2024-01-25T01:19:13;18.80;;;2.53;;
78372;SDS011;67656;52.074;4.758;2024-01-25T01:24:13;22.63;;;2.37;;
78372;SDS011;67656;52.074;4.758;2024-01-25T01:29:14;19.73;;;2.90;;
78372;SDS011;67656;52.074;4.758;2024-01-25T01:34:14;23.80;;;2.57;;
78372;SDS011;67656;52.074;4.758;2024-01-25T01:39:17;21.30;;;2.60;;
78372;SDS011;67656;52.074;4.758;2024-01-25T01:44:17;23.60;;;2.30;;
78372;SDS011;67656;52.074;4.758;2024-01-25T01:49:18;15.63;;;2.50;;
78372;SDS011;67656;52.074;4.758;2024-01-25T01:54:18;15.50;;;2.30;;
78372;SDS011;67656;52.074;4.758;2024-01-25T01:59:19;15.13;;;2.37;;
78372;SDS011;67656;52.074;4.758;2024-01-25T02:04:20;20.73;;;2.53;;
78372;SDS011;67656;52.074;4.758;2024-01-25T02:09:21;18.00;;;2.50;;
78372;SDS011;67656;52.074;4.758;2024-01-25T02:14:22;14.37;;;2.60;;
78372;SDS011;67656;52.074;4.758;2024-01-25T02:19:22;26.37;;;2.30;;
78372;SDS011;67656;52.074;4.758;2024-01-25T02:24:23;13.80;;;2.33;;
78372;SDS011;67656;52.074;4.758;2024-01-25T02:29:26;27.20;;;2.57;;
78372;SDS011;67656;52.074;4.758;2024-01-25T02:34:26;19.00;;;3.00;;
78372;SDS011;67656;52.074;4.758;2024-01-25T02:39:27;23.70;;;2.73;;
78372;SDS011;67656;52.074;4.758;2024-01-25T02:44:27;19.20;;;2.50;;
78372;SDS011;67656;52.074;4.758;2024-01-25T02:49:28;19.80;;;2.33;;
78372;SDS011;67656;52.074;4.758;2024-01-25T02:54:28;20.10;;;3.00;;
78372;SDS011;67656;52.074;4.758;2024-01-25T02:59:29;16.40;;;2.10;;
78372;SDS011;67656;52.074;4.758;2024-01-25T03:04:29;17.20;;;2.23;;
78372;SDS011;67656;52.074;4.758;2024-01-25T03:09:30;21.70;;;2.60;;
78372;SDS011;67656;52.074;4.758;2024-01-25T03:14:30;19.00;;;2.53;;
78372;SDS011;67656;52.074;4.758;2024-01-25T03:19:31;15.87;;;2.40;;
78372;SDS011;67656;52.074;4.758;2024-01-25T03:24:32;18.47;;;2.20;;
78372;SDS011;67656;52.074;4.758;2024-01-25T03:29:32;23.03;;;2.33;;
78372;SDS011;67656;52.074;4.758;2024-01-25T03:34:33;13.43;;;2.00;;
78372;SDS011;67656;52.074;4.758;2024-01-25T03:39:33;18.23;;;2.30;;
78372;SDS011;67656;52.074;4.758;2024-01-25T03:44:34;19.50;;;2.60;;
78372;SDS011;67656;52.074;4.758;2024-01-25T03:49:34;18.07;;;2.30;;
78372;SDS011;67656;52.074;4.758;2024-01-25T03:54:35;11.73;;;2.50;;
78372;SDS011;67656;52.074;4.758;2024-01-25T03:59:35;14.93;;;2.60;;
78372;SDS011;67656;52.074;4.758;2024-01-25T04:04:36;17.37;;;2.37;;
78372;SDS011;67656;52.074;4.758;2024-01-25T04:09:36;25.27;;;2.80;;
78372;SDS011;67656;52.074;4.758;2024-01-25T04:14:37;16.63;;;2.67;;
78372;SDS011;67656;52.074;4.758;2024-01-25T04:19:38;18.93;;;2.33;;
78372;SDS011;67656;52.074;4.758;2024-01-25T04:24:38;22.37;;;2.60;;
78372;SDS011;67656;52.074;4.758;2024-01-25T04:29:40;19.20;;;2.60;;
78372;SDS011;67656;52.074;4.758;2024-01-25T04:34:41;15.23;;;2.13;;
78372;SDS011;67656;52.074;4.758;2024-01-25T04:39:44;15.37;;;2.20;;
78372;SDS011;67656;52.074;4.758;2024-01-25T04:44:44;14.40;;;2.07;;
78372;SDS011;67656;52.074;4.758;2024-01-25T04:49:45;23.43;;;2.77;;
78372;SDS011;67656;52.074;4.758;2024-01-25T04:54:45;21.40;;;2.23;;
78372;SDS011;67656;52.074;4.758;2024-01-25T04:59:46;17.33;;;2.00;;
78372;SDS011;67656;52.074;4.758;2024-01-25T05:04:46;16.77;;;2.57;;
78372;SDS011;67656;52.074;4.758;2024-01-25T05:09:47;26.37;;;2.73;;
78372;SDS011;67656;52.074;4.758;2024-01-25T05:14:47;13.10;;;2.60;;
78372;SDS011;67656;52.074;4.758;2024-01-25T05:19:48;20.50;;;2.40;;
78372;SDS011;67656;52.074;4.758;2024-01-25T05:24:48;15.40;;;2.10;;
78372;SDS011;67656;52.074;4.758;2024-01-25T05:29:49;14.93;;;2.30;;
78372;SDS011;67656;52.074;4.758;2024-01-25T05:34:49;24.60;;;2.83;;
78372;SDS011;67656;52.074;4.758;2024-01-25T05:39:50;21.30;;;3.20;;
78372;SDS011;67656;52.074;4.758;2024-01-25T05:44:50;19.97;;;2.43;;
78372;SDS011;67656;52.074;4.758;2024-01-25T05:49:51;22.43;;;2.50;;
78372;SDS011;67656;52.074;4.758;2024-01-25T05:54:52;28.93;;;2.60;;
78372;SDS011;67656;52.074;4.758;2024-01-25T05:59:52;20.13;;;2.43;;
78372;SDS011;67656;52.074;4.758;2024-01-25T06:04:53;21.03;;;3.00;;
78372;SDS011;67656;52.074;4.758;2024-01-25T06:09:53;18.50;;;2.63;;
78372;SDS011;67656;52.074;4.758;2024-01-25T06:14:54;20.50;;;2.23;;
78372;SDS011;67656;52.074;4.758;2024-01-25T06:19:54;18.70;;;3.23;;
78372;SDS011;67656;52.074;4.758;2024-01-25T06:24:57;24.87;;;3.07;;
78372;SDS011;67656;52.074;4.758;2024-01-25T06:29:58;19.70;;;2.53;;
78372;SDS011;67656;52.074;4.758;2024-01-25T06:34:58;23.03;;;2.77;;
78372;SDS011;67656;52.074;4.758;2024-01-25T06:40:05;25.83;;;3.80;;
78372;SDS011;67656;52.074;4.758;2024-01-25T06:45:18;28.13;;;3.00;;
78372;SDS011;67656;52.074;4.758;2024-01-25T06:50:41;23.00;;;3.03;;
78372;SDS011;67656;52.074;4.758;2024-01-25T06:55:47;17.90;;;3.27;;
78372;SDS011;67656;52.074;4.758;2024-01-25T07:01:14;21.63;;;3.30;;
78372;SDS011;67656;52.074;4.758;2024-01-25T07:06:39;17.43;;;2.80;;
78372;SDS011;67656;52.074;4.758;2024-01-25T07:29:46;18.93;;;3.33;;
78372;SDS011;67656;52.074;4.758;2024-01-25T07:34:47;16.10;;;3.43;;
78372;SDS011;67656;52.074;4.758;2024-01-25T07:39:47;14.47;;;3.27;;
78372;SDS011;67656;52.074;4.758;2024-01-25T07:44:48;13.20;;;2.40;;
78372;SDS011;67656;52.074;4.758;2024-01-25T07:49:51;19.57;;;3.27;;
78372;SDS011;67656;52.074;4.758;2024-01-25T07:54:52;15.30;;;2.60;;
78372;SDS011;67656;52.074;4.758;2024-01-25T07:59:52;17.63;;;2.97;;
78372;SDS011;67656;52.074;4.758;2024-01-25T08:04:53;27.17;;;3.27;;
78372;SDS011;67656;52.074;4.758;2024-01-25T08:09:53;16.07;;;3.50;;
78372;SDS011;67656;52.074;4.758;2024-01-25T08:15:03;20.60;;;3.57;;
78372;SDS011;67656;52.074;4.758;2024-01-25T08:20:04;21.37;;;3.70;;
78372;SDS011;67656;52.074;4.758;2024-01-25T08:25:09;26.58;;;3.33;;
78372;SDS011;67656;52.074;4.758;2024-01-25T08:30:11;25.40;;;4.23;;
78372;SDS011;67656;52.074;4.758;2024-01-25T08:35:12;22.53;;;3.47;;
78372;SDS011;67656;52.074;4.758;2024-01-25T08:40:13;25.30;;;3.57;;
78372;SDS011;67656;52.074;4.758;2024-01-25T08:45:16;21.70;;;3.97;;
78372;SDS011;67656;52.074;4.758;2024-01-25T08:50:16;18.10;;;3.77;;
78372;SDS011;67656;52.074;4.758;2024-01-25T08:55:17;22.33;;;4.40;;
78372;SDS011;67656;52.074;4.758;2024-01-25T09:00:18;19.17;;;3.63;;
78372;SDS011;67656;52.074;4.758;2024-01-25T09:05:26;28.00;;;4.10;;
78372;SDS011;67656;52.074;4.758;2024-01-25T09:10:31;24.00;;;4.03;;
78372;SDS011;67656;52.074;4.758;2024-01-25T09:15:34;15.20;;;3.53;;
78372;SDS011;67656;52.074;4.758;2024-01-25T09:20:49;22.77;;;3.97;;
78372;SDS011;67656;52.074;4.758;2024-01-25T09:25:53;15.13;;;3.28;;
78372;SDS011;67656;52.074;4.758;2024-01-25T09:31:11;13.17;;;3.43;;
78372;SDS011;67656;52.074;4.758;2024-01-25T09:36:16;19.95;;;3.42;;
78372;SDS011;67656;52.074;4.758;2024-01-25T09:41:19;23.10;;;3.03;;
78372;SDS011;67656;52.074;4.758;2024-01-25T09:46:24;19.70;;;3.17;;
78372;SDS011;67656;52.074;4.758;2024-01-25T09:51:30;23.67;;;3.93;;
78372;SDS011;67656;52.074;4.758;2024-01-25T10:01:41;16.53;;;3.03;;
78372;SDS011;67656;52.074;4.758;2024-01-25T10:06:46;13.48;;;3.20;;
78372;SDS011;67656;52.074;4.758;2024-01-25T10:11:46;22.20;;;3.75;;
78372;SDS011;67656;52.074;4.758;2024-01-25T10:16:47;24.73;;;3.93;;
78372;SDS011;67656;52.074;4.758;2024-01-25T10:21:50;18.50;;;3.60;;
78372;SDS011;67656;52.074;4.758;2024-01-25T10:26:50;20.63;;;3.90;;
78372;SDS011;67656;52.074;4.758;2024-01-25T10:31:58;19.48;;;3.95;;
78372;SDS011;67656;52.074;4.758;2024-01-25T10:37:05;22.67;;;3.80;;
78372;SDS011;67656;52.074;4.758;2024-01-25T10:42:18;19.33;;;5.13;;
78372;SDS011;67656;52.074;4.758;2024-01-25T10:53:56;26.25;;;5.68;;
78372;SDS011;67656;52.074;4.758;2024-01-25T11:10:55;28.92;;;5.32;;
78372;SDS011;67656;52.074;4.758;2024-01-25T11:16:16;18.90;;;4.85;;
78372;SDS011;67656;52.074;4.758;2024-01-25T11:28:27;26.17;;;5.60;;
78372;SDS011;67656;52.074;4.758;2024-01-25T11:46:22;23.08;;;4.72;;
78372;SDS011;67656;52.074;4.758;2024-01-25T12:25:48;20.70;;;6.20;;
78372;SDS011;67656;52.074;4.758;2024-01-25T12:42:05;20.63;;;6.05;;
78372;SDS011;67656;52.074;4.758;2024-01-25T12:47:10;29.23;;;7.18;;
78372;SDS011;67656;52.074;4.758;2024-01-25T12:57:39;27.03;;;6.00;;
78372;SDS011;67656;52.074;4.758;2024-01-25T13:02:45;22.65;;;7.15;;
78372;SDS011;67656;52.074;4.758;2024-01-25T13:08:09;31.60;;;8.05;;
78372;SDS011;67656;52.074;4.758;2024-01-25T13:13:23;21.85;;;7.25;;
78372;SDS011;67656;52.074;4.758;2024-01-25T13:18:32;24.30;;;7.40;;
78372;SDS011;67656;52.074;4.758;2024-01-25T13:23:36;30.80;;;7.85;;
78372;SDS011;67656;52.074;4.758;2024-01-25T13:34:40;20.52;;;6.00;;
78372;SDS011;67656;52.074;4.758;2024-01-25T13:39:44;22.75;;;5.90;;
78372;SDS011;67656;52.074;4.758;2024-01-25T13:44:49;25.50;;;6.20;;
78372;SDS011;67656;52.074;4.758;2024-01-25T13:55:11;25.80;;;6.03;;
78372;SDS011;67656;52.074;4.758;2024-01-25T14:00:18;22.52;;;5.85;;
78372;SDS011;67656;52.074;4.758;2024-01-25T14:05:18;23.55;;;5.43;;
78372;SDS011;67656;52.074;4.758;2024-01-25T14:10:19;18.20;;;5.00;;
78372;SDS011;67656;52.074;4.758;2024-01-25T14:15:19;20.65;;;4.88;;
78372;SDS011;67656;52.074;4.758;2024-01-25T14:20:20;24.60;;;5.28;;
78372;SDS011;67656;52.074;4.758;2024-01-25T14:25:23;25.88;;;4.40;;
78372;SDS011;67656;52.074;4.758;2024-01-25T14:30:26;18.63;;;4.70;;
78372;SDS011;67656;52.074;4.758;2024-01-25T14:35:33;29.58;;;5.43;;
78372;SDS011;67656;52.074;4.758;2024-01-25T14:40:33;26.40;;;5.07;;
78372;SDS011;67656;52.074;4.758;2024-01-25T14:45:34;25.05;;;5.18;;
78372;SDS011;67656;52.074;4.758;2024-01-25T14:50:34;26.08;;;5.63;;
78372;SDS011;67656;52.074;4.758;2024-01-25T14:55:35;26.70;;;5.75;;
78372;SDS011;67656;52.074;4.758;2024-01-25T15:00:41;28.30;;;6.60;;
78372;SDS011;67656;52.074;4.758;2024-01-25T15:05:42;26.73;;;6.07;;
78372;SDS011;67656;52.074;4.758;2024-01-25T15:16:59;31.15;;;6.13;;
78372;SDS011;67656;52.074;4.758;2024-01-25T15:22:05;25.80;;;7.35;;
78372;SDS011;67656;52.074;4.758;2024-01-25T15:27:11;30.75;;;7.88;;
78372;SDS011;67656;52.074;4.758;2024-01-25T15:32:57;32.10;;;7.82;;
78372;SDS011;67656;52.074;4.758;2024-01-25T15:38:05;37.35;;;8.43;;
78372;SDS011;67656;52.074;4.758;2024-01-25T15:44:15;35.55;;;9.18;;
78372;SDS011;67656;52.074;4.758;2024-01-25T15:49:23;49.72;;;9.65;;
78372;SDS011;67656;52.074;4.758;2024-01-25T16:00:48;49.60;;;11.25;;
78372;SDS011;67656;52.074;4.758;2024-01-25T16:05:50;56.10;;;12.27;;
78372;SDS011;67656;52.074;4.758;2024-01-25T16:11:11;54.83;;;11.40;;
78372;SDS011;67656;52.074;4.758;2024-01-25T16:16:12;55.97;;;11.35;;
78372;SDS011;67656;52.074;4.758;2024-01-25T16:21:12;55.75;;;12.25;;
78372;SDS011;67656;52.074;4.758;2024-01-25T16:26:15;52.72;;;12.25;;
78372;SDS011;67656;52.074;4.758;2024-01-25T16:31:16;54.47;;;12.40;;
78372;SDS011;67656;52.074;4.758;2024-01-25T16:36:16;58.28;;;12.52;;
78372;SDS011;67656;52.074;4.758;2024-01-25T16:41:17;61.92;;;13.00;;
78372;SDS011;67656;52.074;4.758;2024-01-25T16:46:17;66.97;;;14.00;;
78372;SDS011;67656;52.074;4.758;2024-01-25T16:51:18;62.00;;;14.45;;
78372;SDS011;67656;52.074;4.758;2024-01-25T16:56:18;54.22;;;12.90;;
78372;SDS011;67656;52.074;4.758;2024-01-25T17:01:19;65.60;;;13.70;;
78372;SDS011;67656;52.074;4.758;2024-01-25T17:06:20;59.63;;;14.27;;
78372;SDS011;67656;52.074;4.758;2024-01-25T17:11:20;62.17;;;14.27;;
78372;SDS011;67656;52.074;4.758;2024-01-25T17:16:21;61.55;;;13.60;;
78372;SDS011;67656;52.074;4.758;2024-01-25T17:21:21;62.60;;;12.98;;
78372;SDS011;67656;52.074;4.758;2024-01-25T17:26:28;68.07;;;13.25;;
78372;SDS011;67656;52.074;4.758;2024-01-25T17:31:28;61.33;;;14.00;;
78372;SDS011;67656;52.074;4.758;2024-01-25T17:36:32;78.25;;;16.17;;
78372;SDS011;67656;52.074;4.758;2024-01-25T17:41:32;65.97;;;14.87;;
78372;SDS011;67656;52.074;4.758;2024-01-25T17:46:33;78.05;;;14.80;;
78372;SDS011;67656;52.074;4.758;2024-01-25T17:51:36;65.40;;;14.93;;
78372;SDS011;67656;52.074;4.758;2024-01-25T17:57:29;61.63;;;14.57;;
78372;SDS011;67656;52.074;4.758;2024-01-25T18:02:29;66.53;;;14.98;;
78372;SDS011;67656;52.074;4.758;2024-01-25T18:07:33;66.78;;;15.23;;
78372;SDS011;67656;52.074;4.758;2024-01-25T18:12:36;72.32;;;15.95;;
78372;SDS011;67656;52.074;4.758;2024-01-25T18:17:39;68.85;;;15.40;;
78372;SDS011;67656;52.074;4.758;2024-01-25T18:23:13;68.95;;;15.70;;
78372;SDS011;67656;52.074;4.758;2024-01-25T18:28:14;68.97;;;16.58;;
78372;SDS011;67656;52.074;4.758;2024-01-25T18:33:14;76.53;;;17.23;;
78372;SDS011;67656;52.074;4.758;2024-01-25T18:38:15;69.63;;;16.67;;
78372;SDS011;67656;52.074;4.758;2024-01-25T18:43:16;62.70;;;16.17;;
78372;SDS011;67656;52.074;4.758;2024-01-25T18:48:19;65.22;;;15.85;;
78372;SDS011;67656;52.074;4.758;2024-01-25T18:53:19;62.35;;;16.23;;
78372;SDS011;67656;52.074;4.758;2024-01-25T18:58:22;74.57;;;18.17;;
78372;SDS011;67656;52.074;4.758;2024-01-25T19:03:23;66.03;;;16.83;;
78372;SDS011;67656;52.074;4.758;2024-01-25T19:08:24;68.10;;;17.88;;
78372;SDS011;67656;52.074;4.758;2024-01-25T19:13:25;70.40;;;18.27;;
78372;SDS011;67656;52.074;4.758;2024-01-25T19:18:25;72.90;;;17.48;;
78372;SDS011;67656;52.074;4.758;2024-01-25T19:23:26;67.22;;;17.35;;
78372;SDS011;67656;52.074;4.758;2024-01-25T19:28:26;60.70;;;17.15;;
78372;SDS011;67656;52.074;4.758;2024-01-25T19:33:33;67.47;;;17.05;;
78372;SDS011;67656;52.074;4.758;2024-01-25T19:38:33;53.35;;;15.57;;
78372;SDS011;67656;52.074;4.758;2024-01-25T19:43:34;63.38;;;16.38;;
78372;SDS011;67656;52.074;4.758;2024-01-25T19:48:37;60.65;;;16.02;;
78372;SDS011;67656;52.074;4.758;2024-01-25T19:53:43;62.95;;;16.05;;
78372;SDS011;67656;52.074;4.758;2024-01-25T19:58:44;50.85;;;14.75;;
78372;SDS011;67656;52.074;4.758;2024-01-25T20:03:45;54.97;;;13.95;;
78372;SDS011;67656;52.074;4.758;2024-01-25T20:08:46;52.22;;;14.38;;
78372;SDS011;67656;52.074;4.758;2024-01-25T20:20:39;57.13;;;14.00;;
78372;SDS011;67656;52.074;4.758;2024-01-25T20:25:52;48.35;;;13.07;;
78372;SDS011;67656;52.074;4.758;2024-01-25T20:31:20;50.20;;;14.27;;
78372;SDS011;67656;52.074;4.758;2024-01-25T20:42:53;55.53;;;13.45;;
78372;SDS011;67656;52.074;4.758;2024-01-25T20:47:54;49.65;;;13.02;;
78372;SDS011;67656;52.074;4.758;2024-01-25T20:52:54;53.50;;;14.55;;
78372;SDS011;67656;52.074;4.758;2024-01-25T20:57:55;50.80;;;13.80;;
78372;SDS011;67656;52.074;4.758;2024-01-25T21:02:55;51.03;;;14.20;;
78372;SDS011;67656;52.074;4.758;2024-01-25T21:07:56;46.83;;;14.40;;
78372;SDS011;67656;52.074;4.758;2024-01-25T21:12:58;47.58;;;13.35;;
78372;SDS011;67656;52.074;4.758;2024-01-25T21:17:58;46.38;;;13.43;;
78372;SDS011;67656;52.074;4.758;2024-01-25T21:23:05;52.67;;;15.27;;
78372;SDS011;67656;52.074;4.758;2024-01-25T21:28:05;45.80;;;13.98;;
78372;SDS011;67656;52.074;4.758;2024-01-25T21:33:06;44.22;;;14.10;;
78372;SDS011;67656;52.074;4.758;2024-01-25T21:38:06;41.80;;;14.00;;
78372;SDS011;67656;52.074;4.758;2024-01-25T21:43:07;41.85;;;13.50;;
78372;SDS011;67656;52.074;4.758;2024-01-25T21:48:07;42.80;;;14.50;;
78372;SDS011;67656;52.074;4.758;2024-01-25T21:53:07;36.88;;;13.30;;
78372;SDS011;67656;52.074;4.758;2024-01-25T21:58:08;32.25;;;11.68;;
78372;SDS011;67656;52.074;4.758;2024-01-25T22:03:08;38.03;;;12.75;;
78372;SDS011;67656;52.074;4.758;2024-01-25T22:08:09;34.25;;;12.57;;
78372;SDS011;67656;52.074;4.758;2024-01-25T22:13:10;34.08;;;12.45;;
78372;SDS011;67656;52.074;4.758;2024-01-25T22:18:11;35.53;;;13.05;;
78372;SDS011;67656;52.074;4.758;2024-01-25T22:23:11;37.22;;;12.60;;
78372;SDS011;67656;52.074;4.758;2024-01-25T22:28:12;33.50;;;11.73;;
78372;SDS011;67656;52.074;4.758;2024-01-25T22:33:12;31.30;;;11.52;;
78372;SDS011;67656;52.074;4.758;2024-01-25T22:38:13;30.92;;;10.70;;
78372;SDS011;67656;52.074;4.758;2024-01-25T22:43:13;32.38;;;10.60;;
78372;SDS011;67656;52.074;4.758;2024-01-25T22:48:14;25.55;;;8.93;;
78372;SDS011;67656;52.074;4.758;2024-01-25T22:53:14;21.50;;;8.45;;
78372;SDS011;67656;52.074;4.758;2024-01-25T22:58:15;23.25;;;8.73;;
78372;SDS011;67656;52.074;4.758;2024-01-25T23:03:15;23.33;;;8.40;;
78372;SDS011;67656;52.074;4.758;2024-01-25T23:08:16;24.98;;;8.00;;
78372;SDS011;67656;52.074;4.758;2024-01-25T23:13:16;21.27;;;8.07;;
78372;SDS011;67656;52.074;4.758;2024-01-25T23:18:17;23.55;;;8.23;;
78372;SDS011;67656;52.074;4.758;2024-01-25T23:23:17;23.38;;;8.32;;
78372;SDS011;67656;52.074;4.758;2024-01-25T23:28:18;26.15;;;8.05;;
78372;SDS011;67656;52.074;4.758;2024-01-25T23:33:18;21.80;;;7.82;;
78372;SDS011;67656;52.074;4.758;2024-01-25T23:38:19;19.90;;;7.18;;
78372;SDS011;67656;52.074;4.758;2024-01-25T23:43:19;19.48;;;7.53;;
78372;SDS011;67656;52.074;4.758;2024-01-25T23:48:20;20.02;;;7.25;;
78372;SDS011;67656;52.074;4.758;2024-01-25T23:53:20;21.65;;;7.28;;
78372;SDS011;67656;52.074;4.758;2024-01-25T23:58:20;19.85;;;7.22;;
